Arthur, Iowa
Current Conditions -  °F | °C
As of 11:15 PM on Friday 28 Nov 2014 (Local Time) from KSLB Reporting Station
Haze Haze  
Wind Chill: -8°   Ceiling: Unl
Heat Index: -3°   Visibility: 6mi
Dew Point: -4°   Wind: 8mph
Humidity: 93%   Direction: 120°ESE
Pressure: 29.59"   Gusts: NA
Location:  42.33°N, 95.35°W
Report Text: KSLB 290515Z AUTO 12007KT 6SM BR CLR M03/M04 A2959 RMK AO2
Loading
Personal Weather Stations






























Interactive Weather Map New forecast layout! Learn more

10-Day Weather Forecast

Advertisements
Track Severe Weather on mobile